| time (UTC) | temp C | wind direction | speed KPH | gust KPH | rain 1hr cm | rain 24hr cm | rain mn cm | humidity % | barometer mb |
| 20260507160043 | 10 | 15 | 3.2 | 8.0 | 0.03 | 0.76 | 0.30 | 98 | 1015.4 |
| 20260507154541 | 9 | 32 | 3.2 | 12.9 | 0.00 | 0.79 | 0.28 | 97 | 1015.8 |
| 20260507153051 | 10 | 79 | 8.0 | 16.1 | 0.03 | 0.79 | 0.28 | 97 | 1015.4 |
| 20260507151545 | 10 | 60 | 9.7 | 16.1 | 0.03 | 0.79 | 0.28 | 98 | 1015.1 |
| 20260507150046 | 10 | 113 | 9.7 | 19.3 | 0.05 | 0.79 | 0.28 | 98 | 1015.3 |
| 20260507144543 | 10 | 49 | 6.4 | 16.1 | 0.08 | 0.81 | 0.28 | 98 | 1015.0 |
| 20260507143041 | 10 | 55 | 8.0 | 16.1 | 0.05 | 0.79 | 0.25 | 98 | 1015.1 |
| 20260507141543 | 10 | 64 | 9.7 | 16.1 | 0.05 | 0.79 | 0.25 | 98 | 1015.0 |
| 20260507140048 | 11 | 53 | 3.2 | 9.7 | 0.03 | 0.76 | 0.23 | 98 | 1015.1 |
| 20260507134545 | 10 | 35 | 3.2 | 12.9 | 0.00 | 0.76 | 0.20 | 98 | 1015.0 |
| 20260507133043 | 10 | 80 | 8.0 | 12.9 | 0.00 | 0.76 | 0.20 | 98 | 1014.6 |
| 20260507131603 | 10 | 75 | 8.0 | 14.5 | 0.03 | 0.76 | 0.20 | 98 | 1014.7 |
| 20260507130042 | 10 | 46 | 3.2 | 12.9 | 0.03 | 0.76 | 0.20 | 98 | 1014.6 |
| 20260507124543 | 10 | 83 | 8.0 | 12.9 | 0.03 | 0.89 | 0.20 | 98 | 1014.7 |
| 20260507123044 | 10 | 84 | 6.4 | 16.1 | 0.05 | 0.89 | 0.20 | 98 | 1014.6 |
| 20260507121544 | 10 | 82 | 6.4 | 12.9 | 0.03 | 0.86 | 0.18 | 98 | 1014.6 |
| 20260507120051 | 10 | 72 | 6.4 | 12.9 | 0.03 | 0.86 | 0.18 | 98 | 1014.6 |
| 20260507114546 | 11 | 86 | 0.0 | 4.8 | 0.03 | 0.86 | 0.18 | 98 | 1014.7 |
| 20260507113046 | 11 | 56 | 0.0 | 4.8 | 0.00 | 0.84 | 0.15 | 98 | 1014.9 |
| 20260507111547 | 11 | 74 | 1.6 | 6.4 | 0.00 | 0.84 | 0.15 | 98 | 1014.6 |
| 20260507110046 | 11 | 55 | 6.4 | 11.3 | 0.00 | 0.84 | 0.15 | 98 | 1014.2 |
| 20260507104545 | 11 | 54 | 4.8 | 16.1 | 0.00 | 0.84 | 0.15 | 98 | 1013.9 |
| 20260507103044 | 11 | 75 | 8.0 | 17.7 | 0.00 | 0.84 | 0.15 | 98 | 1013.5 |
| 20260507101549 | 12 | 88 | 9.7 | 14.5 | 0.00 | 0.84 | 0.15 | 98 | 1013.5 |
| 20260507100047 | 12 | 71 | 4.8 | 12.9 | 0.05 | 0.84 | 0.15 | 98 | 1013.6 |
| 20260507094543 | 12 | 89 | 8.0 | 12.9 | 0.05 | 0.84 | 0.15 | 98 | 1013.5 |
| 20260507093052 | 12 | 85 | 6.4 | 12.9 | 0.08 | 0.84 | 0.15 | 98 | 1013.5 |
| 20260507091545 | 13 | 32 | 6.4 | 11.3 | 0.10 | 0.84 | 0.15 | 98 | 1013.4 |
| 20260507090042 | 13 | 49 | 8.0 | 16.1 | 0.08 | 0.79 | 0.10 | 98 | 1013.4 |
| 20260507084549 | 13 | 53 | 9.7 | 20.9 | 0.08 | 0.79 | 0.10 | 98 | 1013.6 |
| 20260507083044 | 14 | 34 | 1.6 | 9.7 | 0.05 | 0.76 | 0.08 | 98 | 1013.5 |
| 20260507081543 | 14 | 49 | 4.8 | 9.7 | 0.03 | 0.74 | 0.05 | 98 | 1013.2 |
| 20260507080105 | 14 | 73 | 4.8 | 9.7 | 0.00 | 0.71 | 0.03 | 98 | 1013.7 |
| 20260507074547 | 15 | 73 | 4.8 | 9.7 | 0.00 | 0.74 | 0.03 | 98 | 1013.8 |
| 20260507073043 | 15 | 355 | 1.6 | 6.4 | 0.00 | 0.74 | 0.03 | 98 | 1013.5 |
| 20260507071603 | 15 | 354 | 3.2 | 11.3 | 0.00 | 0.74 | 0.03 | 98 | 1013.4 |
| 20260507070045 | 15 | 292 | 0.0 | 11.3 | 0.03 | 0.74 | 0.03 | 98 | 1013.5 |
| 20260507064550 | 15 | 335 | 1.6 | 8.0 | 0.03 | 0.74 | 0.03 | 98 | 1014.0 |
| 20260507063047 | 15 | 273 | 3.2 | 9.7 | 0.03 | 0.74 | 0.03 | 98 | 1013.9 |
| 20260507061545 | 15 | 293 | 3.2 | 8.0 | 0.03 | 0.74 | 0.03 | 98 | 1014.2 |
| 20260507060045 | 15 | 337 | 1.6 | 6.4 | 0.00 | 0.71 | 0.00 | 98 | 1014.6 |
| 20260507054547 | 15 | 274 | 6.4 | 11.3 | 0.00 | 0.71 | 0.00 | 98 | 1014.7 |
| 20260507053115 | 15 | 296 | 4.8 | 8.0 | 0.00 | 0.71 | 0.00 | 98 | 1014.6 |
| 20260507051600 | 15 | 278 | 3.2 | 8.0 | 0.00 | 0.71 | 0.00 | 98 | 1014.3 |
| 20260507050044 | 15 | 262 | 4.8 | 9.7 | 0.00 | 0.71 | 0.00 | 98 | 1014.5 |
| 20260507044547 | 15 | 262 | 4.8 | 8.0 | 0.00 | 0.71 | 0.00 | 98 | 1014.7 |
| 20260507043044 | 15 | 266 | 3.2 | 8.0 | 0.00 | 0.71 | 0.00 | 98 | 1014.8 |
| 20260507041547 | 15 | 282 | 6.4 | 14.5 | 0.00 | 0.71 | 0.00 | 98 | 1015.2 |
| 20260507040046 | 15 | 257 | 3.2 | 12.9 | 0.00 | 0.71 | 0.00 | 98 | 1015.4 |
| 20260507034542 | 15 | 312 | 9.7 | 16.1 | 0.00 | 0.71 | 0.71 | 98 | 1015.5 |
| 20260507033047 | 16 | 284 | 9.7 | 16.1 | 0.00 | 0.71 | 0.71 | 97 | 1015.6 |
| 20260507031540 | 16 | 281 | 8.0 | 19.3 | 0.00 | 0.71 | 0.71 | 97 | 1015.5 |
| 20260507030046 | 16 | 273 | 8.0 | 16.1 | 0.00 | 0.71 | 0.71 | 97 | 1015.6 |
| 20260507024545 | 15 | 295 | 4.8 | 9.7 | 0.03 | 0.71 | 0.71 | 97 | 1015.3 |
| 20260507023041 | 16 | 279 | 6.4 | 12.9 | 0.10 | 0.71 | 0.71 | 97 | 1015.2 |
| 20260507021544 | 16 | 320 | 1.6 | 11.3 | 0.33 | 0.71 | 0.71 | 97 | 1014.8 |
| 20260507020049 | 16 | 210 | 6.4 | 17.7 | 0.33 | 0.71 | 0.71 | 97 | 1015.2 |
| 20260507014554 | 16 | 233 | 4.8 | 19.3 | 0.30 | 0.69 | 0.69 | 96 | 1015.5 |
| 20260507013048 | 16 | 258 | 11.3 | 19.3 | 0.28 | 0.61 | 0.61 | 95 | 1016.5 |
| 20260507011542 | 16 | 234 | 6.4 | 12.9 | 0.08 | 0.38 | 0.38 | 94 | 1015.9 |
| 20260507010046 | 16 | 320 | 4.8 | 9.7 | 0.08 | 0.38 | 0.38 | 94 | 1015.7 |
| 20260507004552 | 16 | 269 | 4.8 | 8.0 | 0.10 | 0.38 | 0.38 | 94 | 1015.4 |
| 20260507003042 | 17 | 269 | 3.2 | 9.7 | 0.05 | 0.33 | 0.33 | 93 | 1015.5 |
| 20260507001550 | 17 | 278 | 6.4 | 11.3 | 0.03 | 0.30 | 0.30 | 93 | 1015.3 |
| 20260507000046 | 17 | 269 | 6.4 | 11.3 | 0.03 | 0.30 | 0.30 | 91 | 1014.8 |
| 20260506234544 | 17 | 262 | 11.3 | 20.9 | 0.00 | 0.28 | 0.28 | 89 | 1014.9 |
| 20260506233042 | 18 | 269 | 8.0 | 17.7 | 0.00 | 0.28 | 0.28 | 88 | 1014.7 |
| 20260506231549 | 18 | 285 | 9.7 | 24.1 | 0.00 | 0.28 | 0.28 | 87 | 1014.7 |
| 20260506230046 | 18 | 280 | 14.5 | 27.4 | 0.00 | 0.28 | 0.28 | 85 | 1014.6 |
| 20260506224543 | 18 | 300 | 9.7 | 19.3 | 0.00 | 0.28 | 0.28 | 85 | 1014.3 |
| 20260506223044 | 19 | 276 | 9.7 | 17.7 | 0.00 | 0.28 | 0.28 | 87 | 1014.4 |
| 20260506221543 | 19 | 283 | 8.0 | 14.5 | 0.00 | 0.28 | 0.28 | 87 | 1014.4 |
| 20260506220047 | 19 | 311 | 3.2 | 6.4 | 0.00 | 0.28 | 0.28 | 87 | 1014.1 |
| 20260506214549 | 19 | 210 | 6.4 | 14.5 | 0.00 | 0.28 | 0.28 | 87 | 1013.8 |
| 20260506213042 | 19 | 283 | 6.4 | 12.9 | 0.00 | 0.28 | 0.28 | 85 | 1014.2 |
| 20260506211546 | 19 | 290 | 11.3 | 27.4 | 0.00 | 0.28 | 0.28 | 83 | 1014.4 |
| 20260506210044 | 20 | 269 | 11.3 | 22.5 | 0.00 | 0.28 | 0.28 | 82 | 1014.4 |
| 20260506204550 | 20 | 286 | 6.4 | 17.7 | 0.00 | 0.28 | 0.28 | 82 | 1014.7 |
| 20260506203040 | 20 | 305 | 9.7 | 24.1 | 0.00 | 0.28 | 0.28 | 82 | 1014.7 |
| 20260506201543 | 20 | 293 | 4.8 | 16.1 | 0.00 | 0.28 | 0.28 | 84 | 1014.6 |
| 20260506200049 | 20 | 295 | 17.7 | 24.1 | 0.00 | 0.28 | 0.28 | 83 | 1014.7 |
| 20260506194544 | 20 | 288 | 4.8 | 19.3 | 0.00 | 0.28 | 0.28 | 83 | 1014.6 |
| 20260506193042 | 20 | 297 | 6.4 | 16.1 | 0.00 | 0.28 | 0.28 | 82 | 1014.9 |
| 20260506191545 | 20 | 300 | 11.3 | 24.1 | 0.00 | 0.28 | 0.28 | 80 | 1015.3 |
| 20260506190046 | 21 | 266 | 8.0 | 27.4 | 0.00 | 0.28 | 0.28 | 80 | 1015.1 |
| 20260506184546 | 21 | 5 | 6.4 | 22.5 | 0.00 | 0.28 | 0.28 | 81 | 1014.9 |
| 20260506183051 | 20 | 269 | 8.0 | 19.3 | 0.00 | 0.28 | 0.28 | 80 | 1014.5 |
| 20260506181554 | 20 | 257 | 6.4 | 30.6 | 0.00 | 0.28 | 0.28 | 84 | 1014.5 |
| 20260506180104 | 20 | 287 | 8.0 | 17.7 | 0.00 | 0.28 | 0.28 | 83 | 1014.6 |
| 20260506174542 | 19 | 315 | 8.0 | 22.5 | 0.00 | 0.28 | 0.28 | 83 | 1014.4 |
| 20260506173101 | 18 | 290 | 11.3 | 17.7 | 0.00 | 0.28 | 0.28 | 87 | 1014.6 |
| 20260506171545 | 18 | 276 | 9.7 | 24.1 | 0.03 | 0.28 | 0.28 | 89 | 1014.5 |
| 20260506170045 | 17 | 231 | 11.3 | 16.1 | 0.03 | 0.28 | 0.28 | 92 | 1014.7 |
| 20260506164542 | 17 | 205 | 9.7 | 24.1 | 0.05 | 0.28 | 0.28 | 94 | 1015.0 |
| 20260506163044 | 17 | 278 | 8.0 | 17.7 | 0.05 | 0.28 | 0.28 | 94 | 1015.2 |
| 20260506161553 | 17 | 270 | 14.5 | 30.6 | 0.03 | 0.25 | 0.25 | 93 | 1015.8 |